sensor_id;sensor_type;location;lat;lon;timestamp;pressure;altitude;pressure_sealevel;temperature;humidity
76553;BME280;65395;53.168;18.156;2022-12-29T00:02:19;100441.94;;;6.36;79.53
76553;BME280;65395;53.168;18.156;2022-12-29T00:04:46;100440.05;;;6.32;79.79
76553;BME280;65395;53.168;18.156;2022-12-29T00:07:12;100438.86;;;6.29;79.82
76553;BME280;65395;53.168;18.156;2022-12-29T00:09:39;100433.79;;;6.29;80.02
76553;BME280;65395;53.168;18.156;2022-12-29T00:12:06;100434.11;;;6.29;80.10
76553;BME280;65395;53.168;18.156;2022-12-29T00:14:32;100431.58;;;6.30;80.18
76553;BME280;65395;53.168;18.156;2022-12-29T00:17:09;100421.79;;;6.29;80.15
76553;BME280;65395;53.168;18.156;2022-12-29T00:19:36;100416.83;;;6.27;80.24
76553;BME280;65395;53.168;18.156;2022-12-29T00:22:13;100415.73;;;6.26;80.40
76553;BME280;65395;53.168;18.156;2022-12-29T00:24:50;100413.90;;;6.23;80.47
76553;BME280;65395;53.168;18.156;2022-12-29T00:27:28;100414.04;;;6.21;80.53
76553;BME280;65395;53.168;18.156;2022-12-29T00:30:10;100415.45;;;6.19;80.58
76553;BME280;65395;53.168;18.156;2022-12-29T00:32:47;100411.80;;;6.19;80.60
76553;BME280;65395;53.168;18.156;2022-12-29T00:35:29;100404.15;;;6.18;80.75
76553;BME280;65395;53.168;18.156;2022-12-29T00:37:59;100406.56;;;6.18;80.83
76553;BME280;65395;53.168;18.156;2022-12-29T00:40:37;100403.47;;;6.18;80.96
76553;BME280;65395;53.168;18.156;2022-12-29T00:43:14;100406.39;;;6.19;81.05
76553;BME280;65395;53.168;18.156;2022-12-29T00:45:51;100410.38;;;6.19;81.18
76553;BME280;65395;53.168;18.156;2022-12-29T00:48:18;100411.58;;;6.18;81.14
76553;BME280;65395;53.168;18.156;2022-12-29T00:51:05;100409.59;;;6.15;81.44
76553;BME280;65395;53.168;18.156;2022-12-29T00:53:32;100408.02;;;6.12;81.39
76553;BME280;65395;53.168;18.156;2022-12-29T00:56:00;100407.02;;;6.11;81.46
76553;BME280;65395;53.168;18.156;2022-12-29T00:58:28;100405.45;;;6.10;81.59
76553;BME280;65395;53.168;18.156;2022-12-29T01:01:04;100400.69;;;6.08;81.63
76553;BME280;65395;53.168;18.156;2022-12-29T01:03:33;100404.83;;;6.08;81.65
76553;BME280;65395;53.168;18.156;2022-12-29T01:06:01;100403.25;;;6.07;81.65
76553;BME280;65395;53.168;18.156;2022-12-29T01:08:28;100408.48;;;6.06;81.67
76553;BME280;65395;53.168;18.156;2022-12-29T01:11:00;100413.83;;;6.05;81.74
76553;BME280;65395;53.168;18.156;2022-12-29T01:13:28;100416.55;;;6.04;81.76
76553;BME280;65395;53.168;18.156;2022-12-29T01:15:55;100417.95;;;6.06;81.81
76553;BME280;65395;53.168;18.156;2022-12-29T01:18:22;100414.52;;;6.07;81.91
76553;BME280;65395;53.168;18.156;2022-12-29T01:20:50;100416.60;;;6.08;81.81
76553;BME280;65395;53.168;18.156;2022-12-29T01:23:17;100419.38;;;6.10;81.84
76553;BME280;65395;53.168;18.156;2022-12-29T01:25:45;100414.98;;;6.11;81.82
76553;BME280;65395;53.168;18.156;2022-12-29T01:28:11;100409.69;;;6.11;81.73
76553;BME280;65395;53.168;18.156;2022-12-29T01:30:38;100404.61;;;6.09;81.75
76553;BME280;65395;53.168;18.156;2022-12-29T01:33:05;100404.35;;;6.07;81.66
76553;BME280;65395;53.168;18.156;2022-12-29T01:35:32;100402.89;;;6.05;81.66
76553;BME280;65395;53.168;18.156;2022-12-29T01:37:58;100402.63;;;6.03;81.55
76553;BME280;65395;53.168;18.156;2022-12-29T01:40:25;100403.09;;;6.03;81.68
76553;BME280;65395;53.168;18.156;2022-12-29T01:42:52;100396.81;;;6.03;81.61
76553;BME280;65395;53.168;18.156;2022-12-29T01:45:19;100399.85;;;6.03;81.69
76553;BME280;65395;53.168;18.156;2022-12-29T01:47:52;100391.63;;;6.02;81.63
76553;BME280;65395;53.168;18.156;2022-12-29T01:50:25;100382.67;;;6.01;81.55
76553;BME280;65395;53.168;18.156;2022-12-29T01:52:58;100378.13;;;5.97;81.53
76553;BME280;65395;53.168;18.156;2022-12-29T01:55:29;100374.94;;;5.94;81.49
76553;BME280;65395;53.168;18.156;2022-12-29T01:58:00;100368.55;;;5.94;81.50
76553;BME280;65395;53.168;18.156;2022-12-29T02:00:31;100369.45;;;5.96;81.49
76553;BME280;65395;53.168;18.156;2022-12-29T02:02:58;100365.05;;;5.97;81.51
76553;BME280;65395;53.168;18.156;2022-12-29T02:05:42;100358.46;;;5.99;81.54
76553;BME280;65395;53.168;18.156;2022-12-29T02:08:13;100355.59;;;6.00;81.53
76553;BME280;65395;53.168;18.156;2022-12-29T02:10:40;100347.31;;;6.01;81.58
76553;BME280;65395;53.168;18.156;2022-12-29T02:13:08;100346.48;;;6.03;81.56
76553;BME280;65395;53.168;18.156;2022-12-29T02:15:55;100341.86;;;6.04;81.47
76553;BME280;65395;53.168;18.156;2022-12-29T02:18:41;100340.35;;;6.03;81.51
76553;BME280;65395;53.168;18.156;2022-12-29T02:24:19;100321.72;;;6.02;81.52
76553;BME280;65395;53.168;18.156;2022-12-29T02:32:49;100314.76;;;6.14;81.37
76553;BME280;65395;53.168;18.156;2022-12-29T02:35:32;100313.45;;;6.18;81.37
76553;BME280;65395;53.168;18.156;2022-12-29T02:41:07;100293.71;;;6.17;81.18
76553;BME280;65395;53.168;18.156;2022-12-29T02:43:45;100286.54;;;6.15;81.15
76553;BME280;65395;53.168;18.156;2022-12-29T02:46:27;100280.95;;;6.15;81.10
76553;BME280;65395;53.168;18.156;2022-12-29T02:49:06;100283.87;;;6.17;81.05
76553;BME280;65395;53.168;18.156;2022-12-29T02:51:44;100284.90;;;6.20;81.06
76553;BME280;65395;53.168;18.156;2022-12-29T02:54:17;100286.90;;;6.22;80.98
76553;BME280;65395;53.168;18.156;2022-12-29T02:56:54;100277.90;;;6.24;81.05
76553;BME280;65395;53.168;18.156;2022-12-29T02:59:22;100273.49;;;6.26;80.90
76553;BME280;65395;53.168;18.156;2022-12-29T03:02:05;100270.82;;;6.26;80.95
76553;BME280;65395;53.168;18.156;2022-12-29T03:04:58;100268.20;;;6.27;80.85
76553;BME280;65395;53.168;18.156;2022-12-29T03:08:02;100266.90;;;6.27;80.86
76553;BME280;65395;53.168;18.156;2022-12-29T03:13:43;100268.84;;;6.24;80.76
76553;BME280;65395;53.168;18.156;2022-12-29T03:19:24;100265.64;;;6.24;80.75
76553;BME280;65395;53.168;18.156;2022-12-29T03:22:04;100274.13;;;6.22;80.85
76553;BME280;65395;53.168;18.156;2022-12-29T03:24:46;100269.52;;;6.21;80.67
76553;BME280;65395;53.168;18.156;2022-12-29T03:27:27;100264.83;;;6.16;80.51
76553;BME280;65395;53.168;18.156;2022-12-29T03:29:59;100269.75;;;6.15;80.57
76553;BME280;65395;53.168;18.156;2022-12-29T03:32:32;100270.11;;;6.13;80.61
76553;BME280;65395;53.168;18.156;2022-12-29T03:35:01;100264.83;;;6.12;80.54
76553;BME280;65395;53.168;18.156;2022-12-29T03:37:34;100266.88;;;6.11;80.49
76553;BME280;65395;53.168;18.156;2022-12-29T03:40:04;100259.91;;;6.10;80.39
76553;BME280;65395;53.168;18.156;2022-12-29T03:42:34;100256.83;;;6.09;80.38
76553;BME280;65395;53.168;18.156;2022-12-29T03:45:04;100254.01;;;6.09;80.41
76553;BME280;65395;53.168;18.156;2022-12-29T03:47:31;100259.77;;;6.08;80.56
76553;BME280;65395;53.168;18.156;2022-12-29T03:49:58;100260.50;;;6.08;80.55
76553;BME280;65395;53.168;18.156;2022-12-29T03:52:25;100263.73;;;6.09;80.65
76553;BME280;65395;53.168;18.156;2022-12-29T03:54:52;100252.44;;;6.09;80.61
76553;BME280;65395;53.168;18.156;2022-12-29T03:57:18;100249.98;;;6.10;80.57
76553;BME280;65395;53.168;18.156;2022-12-29T03:59:51;100247.98;;;6.11;80.59
76553;BME280;65395;53.168;18.156;2022-12-29T04:02:18;100246.67;;;6.10;80.68
76553;BME280;65395;53.168;18.156;2022-12-29T04:04:45;100243.90;;;6.11;80.66
76553;BME280;65395;53.168;18.156;2022-12-29T04:07:12;100244.16;;;6.12;80.78
76553;BME280;65395;53.168;18.156;2022-12-29T04:09:40;100240.49;;;6.11;80.74
76553;BME280;65395;53.168;18.156;2022-12-29T04:12:08;100239.30;;;6.11;80.77
76553;BME280;65395;53.168;18.156;2022-12-29T04:14:35;100234.43;;;6.10;80.79
76553;BME280;65395;53.168;18.156;2022-12-29T04:17:02;100230.41;;;6.07;80.86
76553;BME280;65395;53.168;18.156;2022-12-29T04:19:30;100229.56;;;6.06;80.91
76553;BME280;65395;53.168;18.156;2022-12-29T04:21:56;100232.91;;;6.06;81.01
76553;BME280;65395;53.168;18.156;2022-12-29T04:24:23;100227.05;;;6.05;81.04
76553;BME280;65395;53.168;18.156;2022-12-29T04:26:50;100222.40;;;6.04;81.04
76553;BME280;65395;53.168;18.156;2022-12-29T04:29:27;100222.30;;;6.04;81.14
76553;BME280;65395;53.168;18.156;2022-12-29T04:32:05;100223.14;;;6.06;81.12
76553;BME280;65395;53.168;18.156;2022-12-29T04:34:33;100224.17;;;6.10;81.07
76553;BME280;65395;53.168;18.156;2022-12-29T04:37:00;100220.88;;;6.13;81.01
76553;BME280;65395;53.168;18.156;2022-12-29T04:39:28;100217.83;;;6.16;81.00
76553;BME280;65395;53.168;18.156;2022-12-29T04:41:54;100217.82;;;6.18;81.00
76553;BME280;65395;53.168;18.156;2022-12-29T04:44:25;100215.55;;;6.21;80.89
76553;BME280;65395;53.168;18.156;2022-12-29T04:47:02;100212.05;;;6.20;80.92
76553;BME280;65395;53.168;18.156;2022-12-29T04:49:39;100212.23;;;6.18;80.96
76553;BME280;65395;53.168;18.156;2022-12-29T04:52:16;100212.12;;;6.15;80.95
76553;BME280;65395;53.168;18.156;2022-12-29T04:54:45;100212.23;;;6.14;81.09
76553;BME280;65395;53.168;18.156;2022-12-29T04:57:17;100210.24;;;6.14;81.06
76553;BME280;65395;53.168;18.156;2022-12-29T04:59:47;100207.83;;;6.16;81.11
76553;BME280;65395;53.168;18.156;2022-12-29T05:02:15;100205.95;;;6.16;80.98
76553;BME280;65395;53.168;18.156;2022-12-29T05:04:44;100201.81;;;6.17;80.91
76553;BME280;65395;53.168;18.156;2022-12-29T05:07:12;100205.84;;;6.19;81.02
76553;BME280;65395;53.168;18.156;2022-12-29T05:09:39;100211.80;;;6.20;81.01
76553;BME280;65395;53.168;18.156;2022-12-29T05:12:06;100206.25;;;6.19;81.10
76553;BME280;65395;53.168;18.156;2022-12-29T05:14:35;100206.14;;;6.19;81.07
76553;BME280;65395;53.168;18.156;2022-12-29T05:17:03;100204.05;;;6.19;81.08
76553;BME280;65395;53.168;18.156;2022-12-29T05:19:30;100211.64;;;6.19;81.11
76553;BME280;65395;53.168;18.156;2022-12-29T05:21:57;100212.48;;;6.20;81.06
76553;BME280;65395;53.168;18.156;2022-12-29T05:24:24;100208.30;;;6.19;80.97
76553;BME280;65395;53.168;18.156;2022-12-29T05:26:53;100205.72;;;6.18;80.98
76553;BME280;65395;53.168;18.156;2022-12-29T05:29:30;100197.56;;;6.19;80.93
76553;BME280;65395;53.168;18.156;2022-12-29T05:31:57;100187.86;;;6.21;80.89
76553;BME280;65395;53.168;18.156;2022-12-29T05:34:24;100183.42;;;6.23;80.86
76553;BME280;65395;53.168;18.156;2022-12-29T05:36:51;100182.64;;;6.23;80.77
76553;BME280;65395;53.168;18.156;2022-12-29T05:39:18;100182.30;;;6.26;80.81
76553;BME280;65395;53.168;18.156;2022-12-29T05:41:50;100175.55;;;6.26;80.83
76553;BME280;65395;53.168;18.156;2022-12-29T05:44:26;100171.77;;;6.28;80.78
76553;BME280;65395;53.168;18.156;2022-12-29T05:47:09;100160.73;;;6.26;80.78
76553;BME280;65395;53.168;18.156;2022-12-29T05:49:46;100158.56;;;6.33;80.73
76553;BME280;65395;53.168;18.156;2022-12-29T05:52:28;100158.86;;;6.37;80.61
76553;BME280;65395;53.168;18.156;2022-12-29T05:54:54;100154.55;;;6.39;80.68
76553;BME280;65395;53.168;18.156;2022-12-29T05:57:23;100151.19;;;6.43;80.54
76553;BME280;65395;53.168;18.156;2022-12-29T05:59:58;100141.86;;;6.44;80.52
76553;BME280;65395;53.168;18.156;2022-12-29T06:02:25;100138.27;;;6.44;80.54
76553;BME280;65395;53.168;18.156;2022-12-29T06:04:52;100132.60;;;6.44;80.52
76553;BME280;65395;53.168;18.156;2022-12-29T06:07:19;100134.95;;;6.44;80.52
76553;BME280;65395;53.168;18.156;2022-12-29T06:09:47;100140.60;;;6.46;80.46
76553;BME280;65395;53.168;18.156;2022-12-29T06:12:14;100138.50;;;6.47;80.39
76553;BME280;65395;53.168;18.156;2022-12-29T06:14:43;100146.14;;;6.49;80.34
76553;BME280;65395;53.168;18.156;2022-12-29T06:17:11;100143.40;;;6.51;80.32
76553;BME280;65395;53.168;18.156;2022-12-29T06:19:38;100150.52;;;6.52;80.32
76553;BME280;65395;53.168;18.156;2022-12-29T06:22:04;100160.72;;;6.53;80.27
76553;BME280;65395;53.168;18.156;2022-12-29T06:24:34;100157.02;;;6.53;80.24
76553;BME280;65395;53.168;18.156;2022-12-29T06:27:00;100156.53;;;6.53;80.21
76553;BME280;65395;53.168;18.156;2022-12-29T06:29:28;100154.23;;;6.53;80.21
76553;BME280;65395;53.168;18.156;2022-12-29T06:31:56;100145.02;;;6.53;80.05
76553;BME280;65395;53.168;18.156;2022-12-29T06:34:25;100140.96;;;6.56;80.02
76553;BME280;65395;53.168;18.156;2022-12-29T06:36:51;100135.48;;;6.61;79.93
76553;BME280;65395;53.168;18.156;2022-12-29T06:39:19;100128.17;;;6.65;79.68
76553;BME280;65395;53.168;18.156;2022-12-29T06:41:59;100132.92;;;6.70;79.65
76553;BME280;65395;53.168;18.156;2022-12-29T06:44:36;100136.98;;;6.73;79.23
76553;BME280;65395;53.168;18.156;2022-12-29T06:47:06;100145.73;;;6.75;79.24
76553;BME280;65395;53.168;18.156;2022-12-29T06:49:33;100151.16;;;6.77;79.26
76553;BME280;65395;53.168;18.156;2022-12-29T06:51:59;100153.56;;;6.79;79.17
76553;BME280;65395;53.168;18.156;2022-12-29T06:54:27;100154.39;;;6.79;78.97
76553;BME280;65395;53.168;18.156;2022-12-29T06:56:53;100151.59;;;6.80;78.50
76553;BME280;65395;53.168;18.156;2022-12-29T06:59:20;100157.79;;;6.82;78.57
76553;BME280;65395;53.168;18.156;2022-12-29T07:01:47;100160.90;;;6.86;78.30
76553;BME280;65395;53.168;18.156;2022-12-29T07:04:13;100165.58;;;6.91;78.29
76553;BME280;65395;53.168;18.156;2022-12-29T07:06:40;100160.04;;;6.96;77.95
76553;BME280;65395;53.168;18.156;2022-12-29T07:09:08;100155.71;;;7.01;78.01
76553;BME280;65395;53.168;18.156;2022-12-29T07:11:35;100154.12;;;7.04;77.74
76553;BME280;65395;53.168;18.156;2022-12-29T07:14:02;100154.10;;;7.07;77.88
76553;BME280;65395;53.168;18.156;2022-12-29T07:16:29;100159.55;;;7.09;77.43
76553;BME280;65395;53.168;18.156;2022-12-29T07:18:56;100162.63;;;7.09;77.22
76553;BME280;65395;53.168;18.156;2022-12-29T07:21:25;100174.02;;;7.11;77.21
76553;BME280;65395;53.168;18.156;2022-12-29T07:23:53;100172.51;;;7.12;76.81
76553;BME280;65395;53.168;18.156;2022-12-29T07:26:20;100162.33;;;7.15;77.01
76553;BME280;65395;53.168;18.156;2022-12-29T07:28:47;100157.67;;;7.19;76.68
76553;BME280;65395;53.168;18.156;2022-12-29T07:31:16;100152.77;;;7.23;76.59
76553;BME280;65395;53.168;18.156;2022-12-29T07:33:43;100163.02;;;7.26;76.55
76553;BME280;65395;53.168;18.156;2022-12-29T07:36:12;100168.19;;;7.30;76.57
76553;BME280;65395;53.168;18.156;2022-12-29T07:38:39;100169.14;;;7.34;76.57
76553;BME280;65395;53.168;18.156;2022-12-29T07:41:06;100173.22;;;7.36;76.02
76553;BME280;65395;53.168;18.156;2022-12-29T07:43:33;100164.13;;;7.38;76.24
76553;BME280;65395;53.168;18.156;2022-12-29T07:46:19;100157.14;;;7.38;76.22
76553;BME280;65395;53.168;18.156;2022-12-29T07:48:46;100155.52;;;7.35;75.84
76553;BME280;65395;53.168;18.156;2022-12-29T07:51:13;100153.56;;;7.29;75.88
76553;BME280;65395;53.168;18.156;2022-12-29T07:53:40;100153.02;;;7.24;75.91
76553;BME280;65395;53.168;18.156;2022-12-29T07:56:07;100146.98;;;7.21;76.13
76553;BME280;65395;53.168;18.156;2022-12-29T07:58:33;100145.73;;;7.19;76.28
76553;BME280;65395;53.168;18.156;2022-12-29T08:01:00;100145.76;;;7.15;76.41
76553;BME280;65395;53.168;18.156;2022-12-29T08:03:27;100135.77;;;7.13;76.53
76553;BME280;65395;53.168;18.156;2022-12-29T08:05:53;100130.06;;;7.10;76.63
76553;BME280;65395;53.168;18.156;2022-12-29T08:08:20;100124.98;;;7.10;76.46
76553;BME280;65395;53.168;18.156;2022-12-29T08:10:47;100135.54;;;7.14;76.59
76553;BME280;65395;53.168;18.156;2022-12-29T08:13:14;100137.80;;;7.20;76.54
76553;BME280;65395;53.168;18.156;2022-12-29T08:15:40;100144.92;;;7.27;76.30
76553;BME280;65395;53.168;18.156;2022-12-29T08:18:07;100155.77;;;7.34;76.23
76553;BME280;65395;53.168;18.156;2022-12-29T08:20:34;100155.96;;;7.43;76.12
76553;BME280;65395;53.168;18.156;2022-12-29T08:23:01;100146.23;;;7.51;75.94
76553;BME280;65395;53.168;18.156;2022-12-29T08:25:28;100150.16;;;7.57;75.78
76553;BME280;65395;53.168;18.156;2022-12-29T08:27:54;100146.59;;;7.63;75.73
76553;BME280;65395;53.168;18.156;2022-12-29T08:30:21;100149.65;;;7.71;75.61
76553;BME280;65395;53.168;18.156;2022-12-29T08:32:48;100146.36;;;7.77;75.39
76553;BME280;65395;53.168;18.156;2022-12-29T08:35:14;100137.77;;;7.84;75.19
76553;BME280;65395;53.168;18.156;2022-12-29T08:37:41;100146.79;;;7.91;75.09
76553;BME280;65395;53.168;18.156;2022-12-29T08:40:09;100148.88;;;7.96;74.87
76553;BME280;65395;53.168;18.156;2022-12-29T08:42:35;100160.61;;;8.01;74.97
76553;BME280;65395;53.168;18.156;2022-12-29T08:45:02;100171.27;;;8.07;74.81
76553;BME280;65395;53.168;18.156;2022-12-29T08:47:29;100165.77;;;8.11;74.72
76553;BME280;65395;53.168;18.156;2022-12-29T08:49:56;100166.12;;;8.17;74.56
76553;BME280;65395;53.168;18.156;2022-12-29T08:52:23;100172.95;;;8.21;74.17
76553;BME280;65395;53.168;18.156;2022-12-29T08:54:49;100177.27;;;8.25;74.16
76553;BME280;65395;53.168;18.156;2022-12-29T08:57:17;100175.15;;;8.29;73.99
76553;BME280;65395;53.168;18.156;2022-12-29T08:59:56;100172.85;;;8.31;73.85
76553;BME280;65395;53.168;18.156;2022-12-29T09:02:23;100165.56;;;8.35;73.79
76553;BME280;65395;53.168;18.156;2022-12-29T09:04:51;100166.61;;;8.39;73.46
76553;BME280;65395;53.168;18.156;2022-12-29T09:07:17;100166.52;;;8.42;73.66
76553;BME280;65395;53.168;18.156;2022-12-29T09:09:44;100162.38;;;8.45;73.30
76553;BME280;65395;53.168;18.156;2022-12-29T09:12:11;100160.99;;;8.48;73.91
76553;BME280;65395;53.168;18.156;2022-12-29T09:14:38;100155.46;;;8.49;73.68
76553;BME280;65395;53.168;18.156;2022-12-29T09:17:04;100156.34;;;8.50;73.65
76553;BME280;65395;53.168;18.156;2022-12-29T09:19:41;100154.54;;;8.51;73.72
76553;BME280;65395;53.168;18.156;2022-12-29T09:22:08;100149.61;;;8.53;73.52
76553;BME280;65395;53.168;18.156;2022-12-29T09:24:34;100151.42;;;8.56;73.48
76553;BME280;65395;53.168;18.156;2022-12-29T09:27:01;100151.39;;;8.59;73.17
76553;BME280;65395;53.168;18.156;2022-12-29T09:29:28;100155.05;;;8.62;73.00
76553;BME280;65395;53.168;18.156;2022-12-29T09:31:55;100150.05;;;8.65;73.12
76553;BME280;65395;53.168;18.156;2022-12-29T09:34:21;100146.16;;;8.65;73.07
76553;BME280;65395;53.168;18.156;2022-12-29T09:36:48;100144.30;;;8.65;72.74
76553;BME280;65395;53.168;18.156;2022-12-29T09:39:15;100149.94;;;8.65;73.04
76553;BME280;65395;53.168;18.156;2022-12-29T09:41:50;100148.05;;;8.64;72.75
76553;BME280;65395;53.168;18.156;2022-12-29T09:44:28;100149.48;;;8.64;72.75
76553;BME280;65395;53.168;18.156;2022-12-29T09:46:57;100148.59;;;8.63;72.64
76553;BME280;65395;53.168;18.156;2022-12-29T09:52:13;100141.86;;;8.63;72.74
76553;BME280;65395;53.168;18.156;2022-12-29T09:54:53;100138.60;;;8.64;72.44
76553;BME280;65395;53.168;18.156;2022-12-29T09:57:26;100137.16;;;8.66;72.68
76553;BME280;65395;53.168;18.156;2022-12-29T09:59:59;100131.20;;;8.70;72.58
76553;BME280;65395;53.168;18.156;2022-12-29T10:02:38;100131.24;;;8.74;72.49
76553;BME280;65395;53.168;18.156;2022-12-29T10:08:19;100130.70;;;8.87;72.03
76553;BME280;65395;53.168;18.156;2022-12-29T10:11:01;100135.45;;;8.92;71.96
76553;BME280;65395;53.168;18.156;2022-12-29T10:13:49;100137.67;;;8.95;71.69
76553;BME280;65395;53.168;18.156;2022-12-29T10:16:26;100131.84;;;8.95;71.69
76553;BME280;65395;53.168;18.156;2022-12-29T10:19:14;100127.59;;;8.95;71.19
76553;BME280;65395;53.168;18.156;2022-12-29T10:21:55;100126.08;;;8.93;71.28
76553;BME280;65395;53.168;18.156;2022-12-29T10:24:25;100127.91;;;8.95;71.70
76553;BME280;65395;53.168;18.156;2022-12-29T10:26:56;100128.84;;;8.95;71.56
76553;BME280;65395;53.168;18.156;2022-12-29T10:29:28;100123.17;;;8.95;71.06
76553;BME280;65395;53.168;18.156;2022-12-29T10:32:02;100124.55;;;8.94;71.27
76553;BME280;65395;53.168;18.156;2022-12-29T10:34:37;100123.94;;;8.92;70.89
76553;BME280;65395;53.168;18.156;2022-12-29T10:37:13;100126.02;;;8.93;71.56
76553;BME280;65395;53.168;18.156;2022-12-29T10:39:47;100125.79;;;8.96;71.42
76553;BME280;65395;53.168;18.156;2022-12-29T10:42:33;100119.90;;;8.98;71.10
76553;BME280;65395;53.168;18.156;2022-12-29T10:45:04;100116.06;;;9.02;71.41
76553;BME280;65395;53.168;18.156;2022-12-29T10:47:35;100111.73;;;9.06;71.07
76553;BME280;65395;53.168;18.156;2022-12-29T10:50:05;100104.91;;;9.09;71.21
76553;BME280;65395;53.168;18.156;2022-12-29T10:52:33;100109.56;;;9.11;71.15
76553;BME280;65395;53.168;18.156;2022-12-29T10:55:07;100105.52;;;9.14;71.13
76553;BME280;65395;53.168;18.156;2022-12-29T10:57:41;100104.94;;;9.13;70.88
76553;BME280;65395;53.168;18.156;2022-12-29T11:00:17;100107.14;;;9.11;70.65
76553;BME280;65395;53.168;18.156;2022-12-29T11:03:04;100104.16;;;9.10;70.97
76553;BME280;65395;53.168;18.156;2022-12-29T11:05:41;100101.22;;;9.10;71.17
76553;BME280;65395;53.168;18.156;2022-12-29T11:08:15;100093.98;;;9.08;70.54
76553;BME280;65395;53.168;18.156;2022-12-29T11:10:44;100088.36;;;9.07;70.81
76553;BME280;65395;53.168;18.156;2022-12-29T11:13:17;100087.47;;;9.07;70.79
76553;BME280;65395;53.168;18.156;2022-12-29T11:15:47;100092.42;;;9.07;70.72
76553;BME280;65395;53.168;18.156;2022-12-29T11:18:35;100091.77;;;9.07;70.88
76553;BME280;65395;53.168;18.156;2022-12-29T11:21:07;100094.98;;;9.09;70.40
76553;BME280;65395;53.168;18.156;2022-12-29T11:23:37;100087.67;;;9.12;70.54
76553;BME280;65395;53.168;18.156;2022-12-29T11:26:19;100074.82;;;9.18;70.74
76553;BME280;65395;53.168;18.156;2022-12-29T11:31:43;100066.66;;;9.31;70.30
76553;BME280;65395;53.168;18.156;2022-12-29T11:37:04;100058.98;;;9.36;70.02
76553;BME280;65395;53.168;18.156;2022-12-29T11:39:39;100063.89;;;9.39;70.20
76553;BME280;65395;53.168;18.156;2022-12-29T11:42:14;100062.58;;;9.47;69.79
76553;BME280;65395;53.168;18.156;2022-12-29T11:44:44;100059.00;;;9.58;69.65
76553;BME280;65395;53.168;18.156;2022-12-29T11:47:23;100063.27;;;9.71;69.43
76553;BME280;65395;53.168;18.156;2022-12-29T11:49:54;100053.35;;;9.81;69.04
76553;BME280;65395;53.168;18.156;2022-12-29T11:52:25;100046.35;;;9.80;69.28
76553;BME280;65395;53.168;18.156;2022-12-29T11:54:54;100044.05;;;9.77;69.09
76553;BME280;65395;53.168;18.156;2022-12-29T11:57:23;100043.22;;;9.71;69.01
76553;BME280;65395;53.168;18.156;2022-12-29T11:59:52;100041.70;;;9.66;69.34
76553;BME280;65395;53.168;18.156;2022-12-29T12:05:14;100038.98;;;9.57;69.57
76553;BME280;65395;53.168;18.156;2022-12-29T12:07:51;100037.02;;;9.55;69.36
76553;BME280;65395;53.168;18.156;2022-12-29T12:10:27;100038.68;;;9.56;69.57
76553;BME280;65395;53.168;18.156;2022-12-29T12:13:05;100037.40;;;9.57;69.40
76553;BME280;65395;53.168;18.156;2022-12-29T12:15:41;100027.76;;;9.58;69.31
76553;BME280;65395;53.168;18.156;2022-12-29T12:18:18;100024.30;;;9.59;69.49
76553;BME280;65395;53.168;18.156;2022-12-29T12:20:50;100022.91;;;9.60;69.29
76553;BME280;65395;53.168;18.156;2022-12-29T12:23:28;100019.19;;;9.60;69.15
76553;BME280;65395;53.168;18.156;2022-12-29T12:26:04;100022.87;;;9.60;69.25
76553;BME280;65395;53.168;18.156;2022-12-29T12:28:49;100027.34;;;9.60;69.74
76553;BME280;65395;53.168;18.156;2022-12-29T12:31:39;100031.53;;;9.61;69.69
76553;BME280;65395;53.168;18.156;2022-12-29T12:34:15;100039.55;;;9.62;69.72
76553;BME280;65395;53.168;18.156;2022-12-29T12:36:59;100035.19;;;9.62;69.62
76553;BME280;65395;53.168;18.156;2022-12-29T12:39:49;100038.29;;;9.62;69.59
76553;BME280;65395;53.168;18.156;2022-12-29T12:48:25;100041.55;;;9.62;69.56
76553;BME280;65395;53.168;18.156;2022-12-29T12:51:07;100031.11;;;9.63;69.34
76553;BME280;65395;53.168;18.156;2022-12-29T12:56:58;100026.91;;;9.69;69.31
76553;BME280;65395;53.168;18.156;2022-12-29T12:59:37;100021.95;;;9.72;69.22
76553;BME280;65395;53.168;18.156;2022-12-29T13:02:36;100023.28;;;9.73;69.43
76553;BME280;65395;53.168;18.156;2022-12-29T13:11:10;100017.97;;;10.55;67.61
76553;BME280;65395;53.168;18.156;2022-12-29T13:13:59;100018.47;;;10.50;67.66
76553;BME280;65395;53.168;18.156;2022-12-29T13:16:54;100018.91;;;10.43;67.83
76553;BME280;65395;53.168;18.156;2022-12-29T13:19:32;100025.61;;;10.33;68.15
76553;BME280;65395;53.168;18.156;2022-12-29T13:22:10;100029.37;;;10.25;68.34
76553;BME280;65395;53.168;18.156;2022-12-29T13:24:56;100029.61;;;10.17;68.26
76553;BME280;65395;53.168;18.156;2022-12-29T13:27:40;100039.05;;;10.09;68.28
76553;BME280;65395;53.168;18.156;2022-12-29T13:30:15;100031.78;;;10.01;68.39
76553;BME280;65395;53.168;18.156;2022-12-29T13:33:05;100040.33;;;9.94;68.77
76553;BME280;65395;53.168;18.156;2022-12-29T13:35:57;100041.80;;;9.91;68.52
76553;BME280;65395;53.168;18.156;2022-12-29T13:38:35;100041.77;;;9.89;68.91
76553;BME280;65395;53.168;18.156;2022-12-29T13:41:09;100038.07;;;9.87;68.84
76553;BME280;65395;53.168;18.156;2022-12-29T13:43:40;100040.70;;;9.87;68.84
76553;BME280;65395;53.168;18.156;2022-12-29T13:46:21;100041.63;;;9.85;69.03
76553;BME280;65395;53.168;18.156;2022-12-29T13:48:56;100040.52;;;9.82;68.83
76553;BME280;65395;53.168;18.156;2022-12-29T13:51:26;100039.27;;;9.79;68.97
76553;BME280;65395;53.168;18.156;2022-12-29T13:54:11;100040.98;;;9.75;68.98
76553;BME280;65395;53.168;18.156;2022-12-29T13:56:51;100044.05;;;9.69;68.88
76553;BME280;65395;53.168;18.156;2022-12-29T13:59:33;100042.84;;;9.63;69.23
76553;BME280;65395;53.168;18.156;2022-12-29T14:02:19;100048.09;;;9.53;69.32
76553;BME280;65395;53.168;18.156;2022-12-29T14:04:58;100049.52;;;9.43;69.43